createdAt,value
2019-02-14T00:00:14.930Z,11.10
2019-02-14T00:01:50.760Z,12.17
2019-02-14T00:03:25.409Z,12.70
2019-02-14T00:05:00.045Z,9.60
2019-02-14T00:06:34.622Z,12.87
2019-02-14T00:08:09.570Z,10.30
2019-02-14T00:09:44.246Z,12.60
2019-02-14T00:11:18.867Z,10.53
2019-02-14T00:12:53.417Z,11.13
2019-02-14T00:14:27.982Z,10.97
2019-02-14T00:16:02.589Z,11.40
2019-02-14T00:17:37.209Z,12.33
2019-02-14T00:19:11.735Z,13.00
2019-02-14T00:20:46.341Z,13.83
2019-02-14T00:22:20.923Z,12.95
2019-02-14T00:23:55.482Z,11.93
2019-02-14T00:25:30.058Z,11.10
2019-02-14T00:27:04.613Z,13.00
2019-02-14T00:28:39.334Z,13.30
2019-02-14T00:30:14.241Z,12.00
2019-02-14T00:31:49.093Z,14.10
2019-02-14T00:33:23.985Z,12.47
2019-02-14T00:34:58.701Z,13.35
2019-02-14T00:36:33.430Z,13.73
2019-02-14T00:38:08.291Z,12.75
2019-02-14T00:39:43.117Z,12.87
2019-02-14T00:41:17.841Z,12.43
2019-02-14T00:42:52.587Z,11.60
2019-02-14T00:44:27.306Z,12.03
2019-02-14T00:46:02.026Z,13.40
2019-02-14T00:47:36.749Z,12.23
2019-02-14T00:49:11.486Z,12.53
2019-02-14T00:50:46.201Z,14.47
2019-02-14T00:52:21.930Z,13.07
2019-02-14T00:53:56.741Z,11.57
2019-02-14T00:55:31.487Z,12.40
2019-02-14T00:57:06.202Z,13.40
2019-02-14T00:58:40.925Z,10.80
2019-02-14T01:00:15.809Z,13.05
2019-02-14T01:01:50.537Z,12.23
2019-02-14T01:03:25.245Z,13.08
2019-02-14T01:04:59.970Z,14.13
2019-02-14T01:06:34.877Z,12.50
2019-02-14T01:08:09.696Z,15.30
2019-02-14T01:09:44.413Z,14.13
2019-02-14T01:11:19.325Z,16.75
2019-02-14T01:12:55.653Z,13.85
2019-02-14T01:14:30.584Z,18.53
2019-02-14T01:16:05.542Z,15.73
2019-02-14T01:17:40.289Z,15.25
2019-02-14T01:19:15.564Z,15.13
2019-02-14T01:20:50.501Z,14.77
2019-02-14T01:22:25.243Z,15.90
2019-02-14T01:24:00.026Z,16.33
2019-02-14T01:25:34.785Z,18.37
2019-02-14T01:27:09.625Z,15.25
2019-02-14T01:28:44.458Z,17.20
2019-02-14T01:30:19.418Z,14.13
2019-02-14T01:31:54.213Z,15.88
2019-02-14T01:33:29.013Z,17.12
2019-02-14T01:35:04.060Z,17.17
2019-02-14T01:36:38.811Z,18.80
2019-02-14T01:38:13.773Z,16.10
2019-02-14T01:39:48.609Z,18.10
2019-02-14T01:41:23.412Z,20.00
2019-02-14T01:42:58.169Z,19.25
2019-02-14T01:44:32.985Z,21.02
2019-02-14T01:46:07.886Z,18.17
2019-02-14T01:47:42.638Z,17.23
2019-02-14T01:49:17.389Z,19.07
2019-02-14T01:50:52.212Z,18.75
2019-02-14T01:52:27.037Z,17.48
2019-02-14T01:54:01.770Z,18.75
2019-02-14T01:55:36.517Z,20.20
2019-02-14T01:57:11.444Z,20.45
2019-02-14T01:58:46.195Z,17.60
2019-02-14T02:00:21.014Z,18.80
2019-02-14T02:01:56.094Z,21.00
2019-02-14T02:03:30.834Z,20.25
2019-02-14T02:05:05.922Z,22.65
2019-02-14T02:06:40.746Z,18.23
2019-02-14T02:08:15.597Z,20.82
2019-02-14T02:09:50.409Z,21.55
2019-02-14T02:11:26.241Z,18.35
2019-02-14T02:13:01.061Z,19.32
2019-02-14T02:14:35.941Z,19.15
2019-02-14T02:16:10.729Z,18.73
2019-02-14T02:17:45.470Z,18.30
2019-02-14T02:19:20.264Z,23.30
2019-02-14T02:20:55.362Z,18.48
2019-02-14T02:22:30.167Z,18.95
2019-02-14T02:24:05.337Z,21.20
2019-02-14T02:25:40.202Z,18.92
2019-02-14T02:27:15.097Z,23.10
2019-02-14T02:28:49.881Z,19.92
2019-02-14T02:30:24.772Z,18.57
2019-02-14T02:31:59.514Z,21.35
2019-02-14T02:33:34.373Z,22.07
2019-02-14T02:35:09.251Z,18.10
2019-02-14T02:36:44.017Z,20.70
2019-02-14T02:38:18.789Z,22.93
2019-02-14T02:39:53.653Z,19.10
2019-02-14T02:41:28.454Z,23.02
2019-02-14T02:43:03.198Z,20.02
2019-02-14T02:44:37.999Z,20.32
2019-02-14T02:46:12.714Z,23.35
2019-02-14T02:47:47.466Z,22.25
2019-02-14T02:49:22.189Z,23.80
2019-02-14T02:50:57.017Z,22.95
2019-02-14T02:52:31.810Z,18.82
2019-02-14T02:54:06.676Z,23.73
2019-02-14T02:55:41.490Z,22.07
2019-02-14T02:57:16.245Z,20.90
2019-02-14T02:58:51.037Z,20.77
2019-02-14T03:00:25.832Z,19.67
2019-02-14T03:02:00.701Z,20.45
2019-02-14T03:03:35.472Z,23.42
2019-02-14T03:05:11.707Z,22.48
2019-02-14T03:06:46.541Z,21.73
2019-02-14T03:08:21.278Z,22.30
2019-02-14T03:09:56.007Z,21.93
2019-02-14T03:11:30.821Z,21.05
2019-02-14T03:13:05.575Z,18.48
2019-02-14T03:14:40.308Z,19.65
2019-02-14T03:16:15.223Z,21.82
2019-02-14T03:17:49.950Z,17.35
2019-02-14T03:19:24.686Z,20.57
2019-02-14T03:20:59.429Z,19.40
2019-02-14T03:22:34.154Z,21.15
2019-02-14T03:24:08.946Z,20.17
2019-02-14T03:25:43.705Z,19.37
2019-02-14T03:27:18.604Z,17.82
2019-02-14T03:28:53.405Z,18.60
2019-02-14T03:30:28.160Z,17.73
2019-02-14T03:32:02.982Z,17.95
2019-02-14T03:33:37.808Z,19.12
2019-02-14T03:35:12.879Z,18.65
2019-02-14T03:36:47.730Z,19.98
2019-02-14T03:38:23.498Z,18.32
2019-02-14T03:39:58.338Z,18.42
2019-02-14T03:41:33.080Z,17.95
2019-02-14T03:43:07.906Z,18.12
2019-02-14T03:44:43.650Z,16.62
2019-02-14T03:46:18.390Z,17.32
2019-02-14T03:47:54.285Z,17.62
2019-02-14T03:49:29.103Z,16.27
2019-02-14T03:51:03.848Z,21.33
2019-02-14T03:52:38.970Z,21.80
2019-02-14T03:54:13.854Z,24.05
2019-02-14T03:55:49.557Z,20.02
2019-02-14T03:57:24.307Z,16.77
2019-02-14T03:58:59.097Z,19.85
2019-02-14T04:00:33.865Z,21.35
2019-02-14T04:02:08.682Z,19.87
2019-02-14T04:03:43.409Z,18.62
2019-02-14T04:05:18.146Z,17.12
2019-02-14T04:06:52.891Z,18.32
2019-02-14T04:08:27.690Z,20.50
2019-02-14T04:10:02.564Z,20.40
2019-02-14T04:11:38.346Z,20.20
2019-02-14T04:13:13.079Z,19.62
2019-02-14T04:14:47.886Z,18.90
2019-02-14T04:16:22.712Z,17.27
2019-02-14T04:17:57.525Z,19.70
2019-02-14T04:19:32.318Z,17.85
2019-02-14T04:21:07.038Z,18.82
2019-02-14T04:22:41.785Z,17.17
2019-02-14T04:24:16.558Z,20.57
2019-02-14T04:25:51.381Z,18.50
2019-02-14T04:27:26.119Z,16.30
2019-02-14T04:29:00.838Z,17.92
2019-02-14T04:30:35.649Z,18.30
2019-02-14T04:32:10.449Z,17.25
2019-02-14T04:33:45.210Z,15.83
2019-02-14T04:35:19.961Z,16.73
2019-02-14T04:36:55.881Z,17.27
2019-02-14T04:38:31.739Z,15.40
2019-02-14T04:40:08.346Z,16.57
2019-02-14T04:41:44.182Z,17.25
2019-02-14T04:43:18.910Z,17.90
2019-02-14T04:44:53.647Z,17.07
2019-02-14T04:46:28.471Z,16.35
2019-02-14T04:48:04.420Z,15.85
2019-02-14T04:49:41.962Z,15.03
2019-02-14T04:51:16.550Z,17.12
2019-02-14T04:52:51.290Z,16.37
2019-02-14T04:54:26.021Z,17.70
2019-02-14T04:56:00.746Z,15.75
2019-02-14T04:57:35.522Z,20.43
2019-02-14T04:59:10.315Z,19.00
2019-02-14T05:00:45.054Z,16.48
2019-02-14T05:02:19.827Z,15.93
2019-02-14T05:03:54.542Z,17.20
2019-02-14T05:05:29.276Z,18.87
2019-02-14T05:07:04.329Z,18.42
2019-02-14T05:08:39.170Z,17.32
2019-02-14T05:10:13.949Z,16.85
2019-02-14T05:11:58.702Z,21.17
2019-02-14T05:13:33.530Z,17.62
2019-02-14T05:15:08.722Z,16.32
2019-02-14T05:16:43.437Z,16.90
2019-02-14T05:18:18.179Z,18.17
2019-02-14T05:19:53.031Z,17.40
2019-02-14T05:21:27.784Z,19.10
2019-02-14T05:23:02.610Z,16.25
2019-02-14T05:24:37.475Z,18.65
2019-02-14T05:26:12.353Z,15.80
2019-02-14T05:27:47.301Z,18.62
2019-02-14T05:29:22.041Z,20.10
2019-02-14T05:30:56.822Z,18.25
2019-02-14T05:32:31.592Z,19.12
2019-02-14T05:34:06.322Z,16.75
2019-02-14T05:35:41.081Z,20.43
2019-02-14T05:37:15.970Z,23.05
2019-02-14T05:38:50.749Z,18.50
2019-02-14T05:40:25.494Z,18.07
2019-02-14T05:42:00.305Z,17.60
2019-02-14T05:43:36.029Z,22.55
2019-02-14T05:45:11.428Z,20.10
2019-02-14T05:46:47.210Z,21.07
2019-02-14T05:48:22.137Z,20.08
2019-02-14T05:49:57.982Z,19.92
2019-02-14T05:51:32.705Z,18.57
2019-02-14T05:53:07.521Z,16.73
2019-02-14T05:54:42.329Z,20.45
2019-02-14T05:56:17.133Z,22.48
2019-02-14T05:57:51.878Z,18.52
2019-02-14T05:59:26.665Z,18.42
2019-02-14T06:01:01.883Z,14.98
2019-02-14T06:02:36.736Z,19.30
2019-02-14T06:04:11.603Z,17.67
2019-02-14T06:05:46.362Z,17.60
2019-02-14T06:07:21.117Z,17.32
2019-02-14T06:08:55.882Z,18.25
2019-02-14T06:10:30.611Z,20.60
2019-02-14T06:12:05.493Z,18.87
2019-02-14T06:13:40.238Z,17.67
2019-02-14T06:15:15.154Z,17.73
2019-02-14T06:16:51.302Z,19.37
2019-02-14T06:18:26.045Z,17.35
2019-02-14T06:20:00.886Z,16.75
2019-02-14T06:21:35.698Z,17.73
2019-02-14T06:23:10.489Z,17.30
2019-02-14T06:24:45.241Z,17.70
2019-02-14T06:26:20.085Z,21.57
2019-02-14T06:27:54.815Z,18.45
2019-02-14T06:29:29.602Z,18.87
2019-02-14T06:31:04.345Z,16.82
2019-02-14T06:32:39.466Z,17.12
2019-02-14T06:34:14.198Z,18.85
2019-02-14T06:35:49.035Z,18.05
2019-02-14T06:37:24.838Z,19.57
2019-02-14T06:38:59.561Z,19.20
2019-02-14T06:40:34.406Z,16.97
2019-02-14T06:42:09.158Z,18.98
2019-02-14T06:43:43.994Z,18.35
2019-02-14T06:45:19.003Z,19.85
2019-02-14T06:46:53.804Z,17.27
2019-02-14T06:48:28.545Z,17.77
2019-02-14T06:50:03.461Z,19.73
2019-02-14T06:51:38.241Z,20.02
2019-02-14T06:53:13.132Z,16.23
2019-02-14T06:54:48.165Z,20.37
2019-02-14T06:56:22.973Z,17.57
2019-02-14T06:57:57.759Z,19.00
2019-02-14T06:59:32.501Z,17.00
2019-02-14T07:01:07.310Z,20.05
2019-02-14T07:02:42.120Z,16.45
2019-02-14T07:04:16.947Z,21.97
2019-02-14T07:05:51.816Z,21.57
2019-02-14T07:07:26.561Z,18.32
2019-02-14T07:09:01.397Z,16.97
2019-02-14T07:10:37.774Z,18.02
2019-02-14T07:12:12.574Z,18.62
2019-02-14T07:13:47.373Z,19.30
2019-02-14T07:15:22.190Z,17.37
2019-02-14T07:16:56.976Z,19.40
2019-02-14T07:18:31.727Z,22.67
2019-02-14T07:20:08.957Z,19.50
2019-02-14T07:21:43.786Z,19.52
2019-02-14T07:23:18.553Z,16.42
2019-02-14T07:24:53.334Z,17.15
2019-02-14T07:26:28.084Z,17.00
2019-02-14T07:28:02.828Z,15.72
2019-02-14T07:29:37.643Z,18.15
2019-02-14T07:31:12.381Z,19.40
2019-02-14T07:32:47.179Z,17.57
2019-02-14T07:34:22.080Z,17.42
2019-02-14T07:35:56.894Z,18.10
2019-02-14T07:37:31.653Z,16.57
2019-02-14T07:39:07.792Z,17.37
2019-02-14T07:40:42.605Z,19.57
2019-02-14T07:42:17.411Z,18.92
2019-02-14T07:43:52.173Z,18.60
2019-02-14T07:45:27.140Z,16.35
2019-02-14T07:47:01.948Z,16.00
2019-02-14T07:48:36.782Z,16.80
2019-02-14T07:50:11.962Z,17.70
2019-02-14T07:51:48.519Z,16.05
2019-02-14T07:53:23.239Z,15.78
2019-02-14T07:54:57.997Z,16.25
2019-02-14T07:56:32.780Z,16.55
2019-02-14T07:58:07.511Z,16.27
2019-02-14T07:59:42.302Z,14.50
2019-02-14T08:01:17.110Z,18.62
2019-02-14T08:02:51.866Z,14.75
2019-02-14T08:04:26.610Z,16.95
2019-02-14T08:06:01.426Z,16.32
2019-02-14T08:07:36.369Z,17.27
2019-02-14T08:09:11.138Z,17.40
2019-02-14T08:10:46.033Z,15.78
2019-02-14T08:12:20.766Z,13.93
2019-02-14T08:13:55.500Z,16.07
2019-02-14T08:15:30.545Z,13.90
2019-02-14T08:17:05.423Z,16.17
2019-02-14T08:18:40.161Z,17.65
2019-02-14T08:20:15.367Z,15.20
2019-02-14T08:21:50.287Z,16.17
2019-02-14T08:23:26.139Z,17.62
2019-02-14T08:25:00.990Z,15.55
2019-02-14T08:26:35.871Z,14.00
2019-02-14T08:28:10.999Z,16.73
2019-02-14T08:29:45.718Z,14.60
2019-02-14T08:31:20.530Z,16.85
2019-02-14T08:32:55.262Z,14.78
2019-02-14T08:34:30.062Z,18.07
2019-02-14T08:36:04.927Z,16.97
2019-02-14T08:37:45.712Z,15.98
2019-02-14T08:39:16.238Z,17.52
2019-02-14T08:40:51.056Z,14.15
2019-02-14T08:42:25.778Z,17.70
2019-02-14T08:44:00.509Z,13.70
2019-02-14T08:45:35.324Z,13.13
2019-02-14T08:47:10.273Z,15.70
2019-02-14T08:48:45.169Z,15.15
2019-02-14T08:50:19.966Z,12.80
2019-02-14T08:51:54.850Z,13.40
2019-02-14T08:53:29.577Z,12.45
2019-02-14T08:55:05.197Z,16.75
2019-02-14T08:56:39.936Z,15.88
2019-02-14T08:58:14.818Z,15.25
2019-02-14T08:59:50.551Z,16.37
2019-02-14T09:01:25.366Z,14.00
2019-02-14T09:03:00.130Z,13.83
2019-02-14T09:04:34.921Z,12.37
2019-02-14T09:06:09.689Z,14.63
2019-02-14T09:07:44.552Z,14.73
2019-02-14T09:09:19.435Z,13.22
2019-02-14T09:10:54.281Z,14.50
2019-02-14T09:12:29.061Z,13.50
2019-02-14T09:14:03.916Z,13.80
2019-02-14T09:15:38.646Z,13.88
2019-02-14T09:17:13.482Z,14.93
2019-02-14T09:18:48.348Z,13.08
2019-02-14T09:20:23.229Z,14.47
2019-02-14T09:21:58.037Z,14.93
2019-02-14T09:23:32.825Z,13.83
2019-02-14T09:25:07.807Z,14.80
2019-02-14T09:26:42.766Z,12.13
2019-02-14T09:28:17.585Z,11.83
2019-02-14T09:29:52.578Z,13.37
2019-02-14T09:31:27.329Z,13.77
2019-02-14T09:33:02.298Z,12.23
2019-02-14T09:34:37.046Z,12.37
2019-02-14T09:36:11.852Z,10.67
2019-02-14T09:37:46.643Z,11.53
2019-02-14T09:39:21.386Z,13.87
2019-02-14T09:40:56.229Z,12.27
2019-02-14T09:42:30.958Z,12.83
2019-02-14T09:44:05.856Z,10.50
2019-02-14T09:45:40.669Z,12.27
2019-02-14T09:47:15.475Z,10.73
2019-02-14T09:48:50.370Z,12.23
2019-02-14T09:50:25.178Z,11.67
2019-02-14T09:51:59.994Z,11.43
2019-02-14T09:53:34.805Z,10.53
2019-02-14T09:55:10.322Z,12.90
2019-02-14T09:56:45.130Z,11.10
2019-02-14T09:58:19.909Z,13.50
2019-02-14T09:59:54.712Z,12.27
2019-02-14T10:01:29.499Z,12.30
2019-02-14T10:03:04.373Z,11.17
2019-02-14T10:04:39.130Z,10.57
2019-02-14T10:06:13.847Z,10.43
2019-02-14T10:07:48.699Z,11.07
2019-02-14T10:09:23.560Z,9.23
2019-02-14T10:10:58.437Z,10.63
2019-02-14T10:12:33.167Z,9.27
2019-02-14T10:14:07.918Z,10.57
2019-02-14T10:15:43.069Z,9.87
2019-02-14T10:17:22.290Z,9.90
2019-02-14T10:18:54.439Z,9.77
2019-02-14T10:20:29.355Z,8.67
2019-02-14T10:22:04.195Z,10.63
2019-02-14T10:23:38.914Z,10.33
2019-02-14T10:25:13.878Z,10.70
2019-02-14T10:26:51.451Z,10.83
2019-02-14T10:28:26.306Z,9.67
2019-02-14T10:30:01.116Z,9.13
2019-02-14T10:31:35.853Z,12.97
2019-02-14T10:33:10.701Z,11.23
2019-02-14T10:34:45.481Z,9.67
2019-02-14T10:36:20.313Z,8.93
2019-02-14T10:37:55.210Z,9.77
2019-02-14T10:39:30.045Z,9.00
2019-02-14T10:41:04.833Z,8.87
2019-02-14T10:42:39.796Z,8.77
2019-02-14T10:44:14.628Z,8.43
2019-02-14T10:45:49.733Z,10.47
2019-02-14T10:47:24.437Z,9.27
2019-02-14T10:48:59.229Z,8.07
2019-02-14T10:50:33.973Z,8.90
2019-02-14T10:52:09.200Z,11.87
2019-02-14T10:53:44.009Z,11.77
2019-02-14T10:55:18.907Z,8.77
2019-02-14T10:56:53.701Z,11.30
2019-02-14T10:58:28.446Z,9.23
2019-02-14T11:00:04.226Z,12.07
2019-02-14T11:01:42.323Z,8.10
2019-02-14T11:03:17.148Z,9.17
2019-02-14T11:04:51.955Z,8.77
2019-02-14T11:06:26.838Z,10.43
2019-02-14T11:08:01.617Z,9.43
2019-02-14T11:09:36.506Z,9.90
2019-02-14T11:11:11.361Z,8.50
2019-02-14T11:12:46.244Z,7.90
2019-02-14T11:14:28.965Z,9.47
2019-02-14T11:15:57.793Z,8.17
2019-02-14T11:17:32.519Z,11.07
2019-02-14T11:19:07.592Z,12.77
2019-02-14T11:20:42.470Z,8.37
2019-02-14T11:22:17.186Z,8.53
2019-02-14T11:23:51.925Z,8.43
2019-02-14T11:25:29.137Z,9.03
2019-02-14T11:27:03.945Z,9.67
2019-02-14T11:28:38.761Z,7.87
2019-02-14T11:30:15.736Z,9.27
2019-02-14T11:31:50.550Z,7.33
2019-02-14T11:33:25.334Z,7.57
2019-02-14T11:35:00.230Z,9.77
2019-02-14T11:36:35.041Z,7.80
2019-02-14T11:38:09.890Z,8.27
2019-02-14T11:39:44.627Z,8.50
2019-02-14T11:41:19.357Z,9.47
2019-02-14T11:42:54.270Z,9.13
2019-02-14T11:44:29.056Z,8.03
2019-02-14T11:46:03.789Z,8.37
2019-02-14T11:47:38.538Z,10.63
2019-02-14T11:49:13.282Z,8.70
2019-02-14T11:50:49.032Z,7.40
2019-02-14T11:52:23.819Z,7.97
2019-02-14T11:53:58.754Z,10.80
2019-02-14T11:55:33.582Z,7.37
2019-02-14T11:57:08.454Z,7.23
2019-02-14T11:58:43.277Z,6.17
2019-02-14T12:00:20.993Z,5.73
2019-02-14T12:01:55.813Z,5.57
2019-02-14T12:03:30.610Z,6.63
2019-02-14T12:05:05.758Z,5.30
2019-02-14T12:06:40.634Z,5.23
2019-02-14T12:08:15.392Z,7.33
2019-02-14T12:09:50.245Z,5.63
2019-02-14T12:11:24.999Z,7.30
2019-02-14T12:12:59.733Z,7.70
2019-02-14T12:14:34.526Z,5.57
2019-02-14T12:16:09.261Z,7.03
2019-02-14T12:17:43.986Z,7.37
2019-02-14T12:19:18.718Z,5.27
2019-02-14T12:20:53.437Z,5.43
2019-02-14T12:22:28.275Z,6.23
2019-02-14T12:24:02.978Z,7.47
2019-02-14T12:25:37.698Z,5.70
2019-02-14T12:27:12.509Z,25.33
2019-02-14T12:28:47.318Z,9.37
2019-02-14T12:30:22.122Z,10.00
2019-02-14T12:31:56.965Z,7.80
2019-02-14T12:33:31.691Z,6.97
2019-02-14T12:35:06.781Z,5.90
2019-02-14T12:36:42.491Z,5.77
2019-02-14T12:38:17.360Z,4.80
2019-02-14T12:39:52.197Z,7.23
2019-02-14T12:41:26.951Z,4.47
2019-02-14T12:43:01.687Z,5.07
2019-02-14T12:44:36.458Z,6.87
2019-02-14T12:46:12.181Z,5.67
2019-02-14T12:47:46.983Z,4.73
2019-02-14T12:49:21.823Z,5.10
2019-02-14T12:50:56.759Z,5.77
2019-02-14T12:52:31.786Z,6.77
2019-02-14T12:54:06.505Z,6.80
2019-02-14T12:55:41.220Z,5.83
2019-02-14T12:57:15.975Z,5.73
2019-02-14T12:58:50.761Z,5.50
2019-02-14T13:00:27.109Z,7.07
2019-02-14T13:02:01.866Z,5.80
2019-02-14T13:03:36.669Z,7.53
2019-02-14T13:05:11.398Z,6.20
2019-02-14T13:06:46.158Z,5.33
2019-02-14T13:08:20.959Z,5.00
2019-02-14T13:09:55.770Z,7.20
2019-02-14T13:11:30.633Z,6.33
2019-02-14T13:13:05.354Z,6.33
2019-02-14T13:14:40.105Z,5.30
2019-02-14T13:16:14.868Z,5.87
2019-02-14T13:17:49.721Z,6.60
2019-02-14T13:19:24.515Z,3.57
2019-02-14T13:20:59.270Z,4.40
2019-02-14T13:22:34.113Z,4.17
2019-02-14T13:24:08.911Z,3.13
2019-02-14T13:25:43.709Z,2.73
2019-02-14T13:27:18.570Z,3.20
2019-02-14T13:28:53.330Z,2.43
2019-02-14T13:30:28.223Z,4.77
2019-02-14T13:32:03.293Z,3.53
2019-02-14T13:33:38.032Z,3.33
2019-02-14T13:35:13.089Z,3.30
2019-02-14T13:36:47.827Z,2.67
2019-02-14T13:38:22.631Z,4.17
2019-02-14T13:39:58.579Z,3.93
2019-02-14T13:41:33.445Z,3.93
2019-02-14T13:43:10.303Z,3.33
2019-02-14T13:44:44.734Z,2.87
2019-02-14T13:46:19.473Z,3.97
2019-02-14T13:47:54.365Z,3.47
2019-02-14T13:49:29.429Z,3.30
2019-02-14T13:51:04.241Z,3.23
2019-02-14T13:52:39.054Z,3.37
2019-02-14T13:54:13.874Z,3.30
2019-02-14T13:55:48.633Z,3.83
2019-02-14T13:57:23.401Z,5.33
2019-02-14T13:58:58.328Z,3.10
2019-02-14T14:00:33.110Z,2.87
2019-02-14T14:02:07.941Z,2.20
2019-02-14T14:03:42.782Z,3.07
2019-02-14T14:05:17.804Z,3.33
2019-02-14T14:06:54.534Z,3.40
2019-02-14T14:08:29.117Z,3.57
2019-02-14T14:10:04.217Z,4.23
2019-02-14T14:11:39.015Z,3.67
2019-02-14T14:13:13.739Z,2.83
2019-02-14T14:14:48.533Z,4.27
2019-02-14T14:16:23.329Z,2.50
2019-02-14T14:17:58.089Z,4.07
2019-02-14T14:19:32.934Z,3.73
2019-02-14T14:21:07.673Z,2.57
2019-02-14T14:22:42.605Z,4.33
2019-02-14T14:24:17.452Z,2.20
2019-02-14T14:25:52.266Z,3.20
2019-02-14T14:27:27.026Z,4.13
2019-02-14T14:29:01.775Z,3.13
2019-02-14T14:30:36.685Z,2.90
2019-02-14T14:32:11.434Z,3.57
2019-02-14T14:33:46.398Z,1.97
2019-02-14T14:35:21.105Z,1.40
2019-02-14T14:36:55.829Z,1.63
2019-02-14T14:38:30.546Z,1.63
2019-02-14T14:40:06.159Z,2.90
2019-02-14T14:41:41.006Z,2.97
2019-02-14T14:43:38.130Z,1.93
2019-02-14T14:45:15.375Z,2.63
2019-02-14T14:46:54.950Z,2.60
2019-02-14T14:48:35.581Z,2.67
2019-02-14T14:50:10.541Z,3.00
2019-02-14T14:51:45.345Z,2.53
2019-02-14T14:53:20.193Z,2.10
2019-02-14T14:54:55.069Z,4.07
2019-02-14T14:56:29.872Z,2.67
2019-02-14T14:58:04.599Z,3.03
2019-02-14T14:59:39.363Z,2.67
2019-02-14T15:01:14.282Z,2.47
2019-02-14T15:02:49.136Z,1.93
2019-02-14T15:04:23.940Z,2.87
2019-02-14T15:05:58.699Z,3.70
2019-02-14T15:07:33.442Z,3.20
2019-02-14T15:09:08.305Z,2.40
2019-02-14T15:10:43.103Z,2.27
2019-02-14T15:12:17.899Z,2.33
2019-02-14T15:13:52.716Z,4.47
2019-02-14T15:15:27.566Z,2.40
2019-02-14T15:17:02.339Z,2.50
2019-02-14T15:18:37.057Z,2.57
2019-02-14T15:20:11.981Z,2.77
2019-02-14T15:21:46.781Z,2.40
2019-02-14T15:23:21.520Z,3.00
2019-02-14T15:24:56.294Z,1.90
2019-02-14T15:26:31.057Z,2.20
2019-02-14T15:28:05.931Z,2.37
2019-02-14T15:29:40.741Z,4.40
2019-02-14T15:31:15.681Z,3.10
2019-02-14T15:32:50.431Z,3.23
2019-02-14T15:34:25.230Z,2.53
2019-02-14T15:35:59.978Z,2.93
2019-02-14T15:37:34.822Z,4.03
2019-02-14T15:39:22.775Z,4.17
2019-02-14T15:40:57.730Z,2.00
2019-02-14T15:42:32.529Z,3.53
2019-02-14T15:44:07.303Z,3.27
2019-02-14T15:45:42.135Z,3.83
2019-02-14T15:47:16.940Z,3.03
2019-02-14T15:48:51.782Z,3.30
2019-02-14T15:50:27.893Z,2.50
2019-02-14T15:52:05.391Z,3.63
2019-02-14T15:53:41.268Z,3.67
2019-02-14T15:55:16.153Z,3.20
2019-02-14T15:56:51.425Z,2.50
2019-02-14T15:58:29.113Z,3.53
2019-02-14T16:00:07.841Z,2.73
2019-02-14T16:01:44.286Z,3.53
2019-02-14T16:03:19.593Z,3.00
2019-02-14T16:04:54.934Z,6.67
2019-02-14T16:06:30.319Z,6.57
2019-02-14T16:08:05.329Z,3.57
2019-02-14T16:09:41.255Z,4.07
2019-02-14T16:11:16.730Z,5.07
2019-02-14T16:12:51.509Z,4.73
2019-02-14T16:14:27.797Z,4.03
2019-02-14T16:16:03.401Z,4.57
2019-02-14T16:17:38.776Z,5.23
2019-02-14T16:19:14.631Z,3.17
2019-02-14T16:20:51.217Z,4.50
2019-02-14T16:22:29.964Z,3.53
2019-02-14T16:24:05.600Z,3.07
2019-02-14T16:25:43.672Z,3.53
2019-02-14T16:27:22.439Z,3.93
2019-02-14T16:28:59.323Z,4.20
2019-02-14T16:30:34.521Z,5.47
2019-02-14T16:32:11.913Z,4.20
2019-02-14T16:33:48.137Z,4.23
2019-02-14T16:35:24.294Z,4.10
2019-02-14T16:37:21.535Z,5.00
2019-02-14T16:38:58.805Z,5.17
2019-02-14T16:40:38.688Z,4.63
2019-02-14T16:42:12.339Z,4.03
2019-02-14T16:43:47.518Z,4.30
2019-02-14T16:45:23.377Z,5.30
2019-02-14T16:47:01.188Z,4.05
2019-02-14T16:48:37.674Z,3.57
2019-02-14T16:50:12.862Z,3.83
2019-02-14T16:51:49.175Z,3.77
2019-02-14T16:53:24.762Z,5.77
2019-02-14T16:55:00.305Z,5.77
2019-02-14T16:56:36.791Z,4.47
2019-02-14T16:58:12.370Z,5.07
2019-02-14T16:59:48.295Z,4.90
2019-02-14T17:01:23.727Z,4.50
2019-02-14T17:02:59.422Z,4.60
2019-02-14T17:04:34.830Z,5.47
2019-02-14T17:06:09.800Z,4.80
2019-02-14T17:07:45.362Z,5.33
2019-02-14T17:09:20.665Z,4.45
2019-02-14T17:10:57.044Z,4.37
2019-02-14T17:12:32.187Z,5.77
2019-02-14T17:14:06.923Z,4.87
2019-02-14T17:15:41.666Z,4.93
2019-02-14T17:17:16.474Z,5.43
2019-02-14T17:18:51.213Z,5.92
2019-02-14T17:20:25.906Z,4.13
2019-02-14T17:22:00.679Z,6.87
2019-02-14T17:23:35.418Z,4.80
2019-02-14T17:25:10.190Z,7.57
2019-02-14T17:26:45.903Z,6.33
2019-02-14T17:28:21.338Z,9.07
2019-02-14T17:29:56.848Z,6.87
2019-02-14T17:31:32.034Z,8.70
2019-02-14T17:33:08.490Z,6.75
2019-02-14T17:34:43.946Z,10.03
2019-02-14T17:36:19.554Z,7.47
2019-02-14T17:37:55.424Z,8.30
2019-02-14T17:39:31.143Z,7.42
2019-02-14T17:41:06.386Z,8.33
2019-02-14T17:42:42.077Z,6.83
2019-02-14T17:44:17.647Z,7.13
2019-02-14T17:45:52.902Z,5.83
2019-02-14T17:47:28.945Z,7.33
2019-02-14T17:49:04.738Z,7.22
2019-02-14T17:50:40.333Z,5.67
2019-02-14T17:52:16.850Z,6.20
2019-02-14T17:53:52.112Z,6.37
2019-02-14T17:55:27.989Z,5.93
2019-02-14T17:57:03.723Z,6.63
2019-02-14T17:58:39.518Z,7.73
2019-02-14T18:00:14.910Z,5.83
2019-02-14T18:01:51.759Z,4.70
2019-02-14T18:03:27.873Z,7.03
2019-02-14T18:05:03.927Z,5.23
2019-02-14T18:06:39.522Z,5.03
2019-02-14T18:08:15.372Z,5.33
2019-02-14T18:10:14.268Z,6.15
2019-02-14T18:11:51.558Z,7.80
2019-02-14T18:13:27.147Z,5.53
2019-02-14T18:17:43.013Z,7.87
2019-02-14T18:19:17.741Z,6.67
2019-02-14T18:20:52.483Z,8.88
2019-02-14T18:22:27.307Z,7.10
2019-02-14T18:24:02.142Z,7.83
2019-02-14T18:25:37.037Z,5.58
2019-02-14T18:27:11.761Z,6.78
2019-02-14T18:29:30.417Z,6.05
2019-02-14T18:31:07.365Z,10.03
2019-02-14T18:32:42.562Z,8.33
2019-02-14T18:34:17.301Z,7.50
2019-02-14T18:35:52.021Z,7.17
2019-02-14T18:37:26.794Z,7.30
2019-02-14T18:39:01.566Z,7.85
2019-02-14T18:40:38.633Z,7.15
2019-02-14T18:42:13.994Z,5.55
2019-02-14T18:43:49.522Z,6.92
2019-02-14T18:45:25.026Z,6.78
2019-02-14T18:47:21.054Z,6.55
2019-02-14T18:48:56.209Z,5.12
2019-02-14T18:50:32.543Z,7.37
2019-02-14T18:52:07.762Z,6.95
2019-02-14T18:53:43.154Z,5.80
2019-02-14T18:55:18.499Z,8.63
2019-02-14T18:56:54.261Z,5.25
2019-02-14T18:58:29.314Z,7.65
2019-02-14T19:00:09.044Z,5.25
2019-02-14T19:01:44.228Z,5.70
2019-02-14T19:03:19.486Z,6.15
2019-02-14T19:04:55.085Z,4.85
2019-02-14T19:06:30.109Z,4.83
2019-02-14T19:08:05.463Z,6.05
2019-02-14T19:09:40.901Z,5.35
2019-02-14T19:11:16.563Z,7.87
2019-02-14T19:13:11.940Z,6.75
2019-02-14T19:14:47.968Z,6.45
2019-02-14T19:16:23.890Z,8.68
2019-02-14T19:17:58.907Z,7.08
2019-02-14T19:19:34.860Z,7.00
2019-02-14T19:21:10.707Z,6.40
2019-02-14T19:22:45.993Z,13.20
2019-02-14T19:24:21.465Z,5.95
2019-02-14T19:25:57.092Z,5.45
2019-02-14T19:27:32.656Z,5.40
2019-02-14T19:29:08.553Z,5.47
2019-02-14T19:30:43.575Z,6.47
2019-02-14T19:32:19.001Z,7.72
2019-02-14T19:33:56.901Z,6.92
2019-02-14T19:35:31.625Z,5.70
2019-02-14T19:37:06.343Z,7.15
2019-02-14T19:38:41.109Z,4.97
2019-02-14T19:40:15.839Z,5.53
2019-02-14T19:41:50.987Z,6.10
2019-02-14T19:43:26.893Z,5.70
2019-02-14T19:45:02.731Z,5.97
2019-02-14T19:46:38.158Z,5.85
2019-02-14T19:48:13.516Z,5.10
2019-02-14T19:49:49.077Z,5.33
2019-02-14T19:51:24.301Z,6.10
2019-02-14T19:52:59.706Z,6.20
2019-02-14T19:54:35.590Z,4.53
2019-02-14T19:56:10.948Z,6.45
2019-02-14T19:57:46.390Z,6.05
2019-02-14T19:59:21.790Z,4.97
2019-02-14T20:00:57.783Z,4.67
2019-02-14T20:02:33.433Z,6.22
2019-02-14T20:04:09.604Z,6.33
2019-02-14T20:05:45.131Z,7.05
2019-02-14T20:07:20.803Z,6.87
2019-02-14T20:08:56.053Z,5.83
2019-02-14T20:10:31.389Z,6.62
2019-02-14T20:12:06.796Z,5.62
2019-02-14T20:13:49.330Z,6.97
2019-02-14T20:15:19.946Z,5.25
2019-02-14T20:16:55.870Z,6.05
2019-02-14T20:18:31.397Z,5.30
2019-02-14T20:20:08.192Z,6.70
2019-02-14T20:21:43.970Z,5.58
2019-02-14T20:23:19.206Z,4.78
2019-02-14T20:24:55.002Z,5.22
2019-02-14T20:26:30.325Z,6.08
2019-02-14T20:28:05.930Z,7.12
2019-02-14T20:29:41.025Z,6.53
2019-02-14T20:31:16.282Z,7.20
2019-02-14T20:32:52.399Z,5.22
2019-02-14T20:34:28.121Z,7.92
2019-02-14T20:36:04.814Z,8.45
2019-02-14T20:37:40.704Z,8.58
2019-02-14T20:39:16.627Z,6.72
2019-02-14T20:40:51.752Z,5.58
2019-02-14T20:42:27.018Z,6.10
2019-02-14T20:44:02.702Z,6.55
2019-02-14T20:45:39.088Z,4.85
2019-02-14T20:47:14.249Z,8.73
2019-02-14T20:48:49.917Z,5.45